KMOB/MOB METAR and TAF weather

Enter ICAO airport designator
Station Type Date Time Source
KMOB METAR 2019/06/20 06:56 UTC NOAA

KMOB 200656Z AUTO 20004KT 10SM FEW015 26/25 A2987 RMK AO2 SLP110 T02560250


Station Type Date Time Source
KMOB Decoded METAR 2019/06/20 06:56 UTC NOAA

MOBILE REGIONAL AIRPORT, AL, United States (KMOB) 30-41N 88-14W 67M
Jun 20, 2019 - 02:56 AM EDT / 2019.06.20 0656 UTC
Wind: from the SSW (200 degrees) at 5 MPH (4 KT):0
Visibility: 10 mile(s):0
Sky conditions: mostly clear
Temperature: 78.1 F (25.6 C)
Dew Point: 77.0 F (25.0 C)
Relative Humidity: 96%
Pressure (altimeter): 29.87 in. Hg (1011 hPa)
ob: KMOB 200656Z AUTO 20004KT 10SM FEW015 26/25 A2987 RMK AO2 SLP110 T02560250
cycle: 7

Station Type Date Time Source
KMOB TAF 2019/06/20 06:22 UTC NOAA

TAF KMOB 200520Z 2006/2106 21007KT P6SM SCT250
FM201800 22012KT P6SM VCTS BKN050CB
FM210000 21010KT P6SM SCT250

Example: see airport list